sensor_id;sensor_type;location;lat;lon;timestamp;temperature;humidity
12152;DHT22;6139;51.274;7.128;2023-12-20T00:00:59;7.20;99.90
12152;DHT22;6139;51.274;7.128;2023-12-20T00:02:01;7.20;99.90
12152;DHT22;6139;51.274;7.128;2023-12-20T00:03:04;7.20;99.90
12152;DHT22;6139;51.274;7.128;2023-12-20T00:04:06;7.20;99.90
12152;DHT22;6139;51.274;7.128;2023-12-20T00:05:07;7.20;99.90
12152;DHT22;6139;51.274;7.128;2023-12-20T00:06:10;7.20;99.90
12152;DHT22;6139;51.274;7.128;2023-12-20T00:07:11;7.10;99.90
12152;DHT22;6139;51.274;7.128;2023-12-20T00:08:12;7.10;99.90
12152;DHT22;6139;51.274;7.128;2023-12-20T00:09:14;7.10;99.90
12152;DHT22;6139;51.274;7.128;2023-12-20T00:10:15;7.10;99.90
12152;DHT22;6139;51.274;7.128;2023-12-20T00:11:17;7.10;99.90
12152;DHT22;6139;51.274;7.128;2023-12-20T00:12:18;7.10;99.90
12152;DHT22;6139;51.274;7.128;2023-12-20T00:13:20;7.10;99.90
12152;DHT22;6139;51.274;7.128;2023-12-20T00:14:21;7.10;99.90
12152;DHT22;6139;51.274;7.128;2023-12-20T00:15:23;7.10;99.90
12152;DHT22;6139;51.274;7.128;2023-12-20T00:16:24;7.10;99.90
12152;DHT22;6139;51.274;7.128;2023-12-20T00:17:26;7.00;99.90
12152;DHT22;6139;51.274;7.128;2023-12-20T00:18:28;7.00;99.90
12152;DHT22;6139;51.274;7.128;2023-12-20T00:19:30;7.00;99.90
12152;DHT22;6139;51.274;7.128;2023-12-20T00:20:31;7.00;99.90
12152;DHT22;6139;51.274;7.128;2023-12-20T00:21:33;7.00;99.90
12152;DHT22;6139;51.274;7.128;2023-12-20T00:22:34;7.00;99.90
12152;DHT22;6139;51.274;7.128;2023-12-20T00:23:35;7.00;99.90
12152;DHT22;6139;51.274;7.128;2023-12-20T00:24:36;7.00;99.90
12152;DHT22;6139;51.274;7.128;2023-12-20T00:25:38;7.00;99.90
12152;DHT22;6139;51.274;7.128;2023-12-20T00:26:39;7.00;99.90
12152;DHT22;6139;51.274;7.128;2023-12-20T00:27:41;7.00;99.90
12152;DHT22;6139;51.274;7.128;2023-12-20T00:28:42;7.00;99.90
12152;DHT22;6139;51.274;7.128;2023-12-20T00:29:44;7.00;99.90
12152;DHT22;6139;51.274;7.128;2023-12-20T00:30:50;7.00;99.90
12152;DHT22;6139;51.274;7.128;2023-12-20T00:31:51;7.00;99.90
12152;DHT22;6139;51.274;7.128;2023-12-20T00:32:53;7.00;99.90
12152;DHT22;6139;51.274;7.128;2023-12-20T00:33:55;7.00;99.90
12152;DHT22;6139;51.274;7.128;2023-12-20T00:34:58;7.00;99.90
12152;DHT22;6139;51.274;7.128;2023-12-20T00:35:59;7.00;99.90
12152;DHT22;6139;51.274;7.128;2023-12-20T00:37:00;7.00;99.90
12152;DHT22;6139;51.274;7.128;2023-12-20T00:38:02;7.00;99.90
12152;DHT22;6139;51.274;7.128;2023-12-20T00:39:03;7.00;99.90
12152;DHT22;6139;51.274;7.128;2023-12-20T00:40:06;7.00;99.90
12152;DHT22;6139;51.274;7.128;2023-12-20T00:41:07;7.00;99.90
12152;DHT22;6139;51.274;7.128;2023-12-20T00:42:09;7.00;99.90
12152;DHT22;6139;51.274;7.128;2023-12-20T00:43:10;7.00;99.90
12152;DHT22;6139;51.274;7.128;2023-12-20T00:44:12;7.00;99.90
12152;DHT22;6139;51.274;7.128;2023-12-20T00:45:13;7.00;99.90
12152;DHT22;6139;51.274;7.128;2023-12-20T00:46:16;7.00;99.90
12152;DHT22;6139;51.274;7.128;2023-12-20T00:47:17;7.00;99.90
12152;DHT22;6139;51.274;7.128;2023-12-20T00:48:18;7.00;99.90
12152;DHT22;6139;51.274;7.128;2023-12-20T00:49:21;7.00;99.90
12152;DHT22;6139;51.274;7.128;2023-12-20T00:50:23;7.00;99.90
12152;DHT22;6139;51.274;7.128;2023-12-20T00:51:24;7.00;99.90
12152;DHT22;6139;51.274;7.128;2023-12-20T00:52:25;7.00;99.90
12152;DHT22;6139;51.274;7.128;2023-12-20T00:53:26;7.00;99.90
12152;DHT22;6139;51.274;7.128;2023-12-20T00:54:28;7.00;99.90
12152;DHT22;6139;51.274;7.128;2023-12-20T00:55:31;7.00;99.90
12152;DHT22;6139;51.274;7.128;2023-12-20T00:56:33;7.00;99.90
12152;DHT22;6139;51.274;7.128;2023-12-20T00:57:34;6.90;99.90
12152;DHT22;6139;51.274;7.128;2023-12-20T00:58:36;6.90;99.90
12152;DHT22;6139;51.274;7.128;2023-12-20T00:59:37;7.00;99.90
12152;DHT22;6139;51.274;7.128;2023-12-20T01:00:38;6.90;99.90
12152;DHT22;6139;51.274;7.128;2023-12-20T01:01:40;6.90;99.90
12152;DHT22;6139;51.274;7.128;2023-12-20T01:02:41;6.90;99.90
12152;DHT22;6139;51.274;7.128;2023-12-20T01:03:43;6.90;99.90
12152;DHT22;6139;51.274;7.128;2023-12-20T01:04:45;6.90;99.90
12152;DHT22;6139;51.274;7.128;2023-12-20T01:05:47;6.90;99.90
12152;DHT22;6139;51.274;7.128;2023-12-20T01:06:48;6.90;99.90
12152;DHT22;6139;51.274;7.128;2023-12-20T01:07:50;6.90;99.90
12152;DHT22;6139;51.274;7.128;2023-12-20T01:08:51;6.90;99.90
12152;DHT22;6139;51.274;7.128;2023-12-20T01:09:53;6.80;99.90
12152;DHT22;6139;51.274;7.128;2023-12-20T01:10:54;6.90;99.90
12152;DHT22;6139;51.274;7.128;2023-12-20T01:11:56;6.80;99.90
12152;DHT22;6139;51.274;7.128;2023-12-20T01:12:57;6.80;99.90
12152;DHT22;6139;51.274;7.128;2023-12-20T01:13:59;6.80;99.90
12152;DHT22;6139;51.274;7.128;2023-12-20T01:15:00;6.80;99.90
12152;DHT22;6139;51.274;7.128;2023-12-20T01:16:02;6.80;99.90
12152;DHT22;6139;51.274;7.128;2023-12-20T01:17:03;6.80;99.90
12152;DHT22;6139;51.274;7.128;2023-12-20T01:18:05;6.70;99.90
12152;DHT22;6139;51.274;7.128;2023-12-20T01:19:06;6.80;99.90
12152;DHT22;6139;51.274;7.128;2023-12-20T01:20:10;6.80;99.90
12152;DHT22;6139;51.274;7.128;2023-12-20T01:21:11;6.80;99.90
12152;DHT22;6139;51.274;7.128;2023-12-20T01:22:13;6.80;99.90
12152;DHT22;6139;51.274;7.128;2023-12-20T01:23:14;6.80;99.90
12152;DHT22;6139;51.274;7.128;2023-12-20T01:24:16;6.80;99.90
12152;DHT22;6139;51.274;7.128;2023-12-20T01:25:17;6.80;99.90
12152;DHT22;6139;51.274;7.128;2023-12-20T01:26:18;6.70;99.90
12152;DHT22;6139;51.274;7.128;2023-12-20T01:27:19;6.80;99.90
12152;DHT22;6139;51.274;7.128;2023-12-20T01:28:20;6.80;99.90
12152;DHT22;6139;51.274;7.128;2023-12-20T01:29:23;6.80;99.90
12152;DHT22;6139;51.274;7.128;2023-12-20T01:30:24;6.80;99.90
12152;DHT22;6139;51.274;7.128;2023-12-20T01:31:26;6.80;99.90
12152;DHT22;6139;51.274;7.128;2023-12-20T01:32:27;6.80;99.90
12152;DHT22;6139;51.274;7.128;2023-12-20T01:33:29;6.80;99.90
12152;DHT22;6139;51.274;7.128;2023-12-20T01:34:30;6.80;99.90
12152;DHT22;6139;51.274;7.128;2023-12-20T01:35:34;6.80;99.90
12152;DHT22;6139;51.274;7.128;2023-12-20T01:36:34;6.80;99.90
12152;DHT22;6139;51.274;7.128;2023-12-20T01:37:36;6.80;99.90
12152;DHT22;6139;51.274;7.128;2023-12-20T01:38:38;6.80;99.90
12152;DHT22;6139;51.274;7.128;2023-12-20T01:39:39;6.70;99.90
12152;DHT22;6139;51.274;7.128;2023-12-20T01:40:40;6.70;99.90
12152;DHT22;6139;51.274;7.128;2023-12-20T01:41:41;6.70;99.90
12152;DHT22;6139;51.274;7.128;2023-12-20T01:42:43;6.70;99.90
12152;DHT22;6139;51.274;7.128;2023-12-20T01:43:44;6.70;99.90
12152;DHT22;6139;51.274;7.128;2023-12-20T01:44:47;6.60;99.90
12152;DHT22;6139;51.274;7.128;2023-12-20T01:45:48;6.60;99.90
12152;DHT22;6139;51.274;7.128;2023-12-20T01:46:51;6.60;99.90
12152;DHT22;6139;51.274;7.128;2023-12-20T01:47:52;6.60;99.90
12152;DHT22;6139;51.274;7.128;2023-12-20T01:48:54;6.60;99.90
12152;DHT22;6139;51.274;7.128;2023-12-20T01:49:55;6.60;99.90
12152;DHT22;6139;51.274;7.128;2023-12-20T01:51:00;6.60;99.90
12152;DHT22;6139;51.274;7.128;2023-12-20T01:52:01;6.60;99.90
12152;DHT22;6139;51.274;7.128;2023-12-20T01:53:04;6.60;99.90
12152;DHT22;6139;51.274;7.128;2023-12-20T01:54:07;6.60;99.90
12152;DHT22;6139;51.274;7.128;2023-12-20T01:55:09;6.60;99.90
12152;DHT22;6139;51.274;7.128;2023-12-20T01:56:14;6.60;99.90
12152;DHT22;6139;51.274;7.128;2023-12-20T01:57:15;6.50;99.90
12152;DHT22;6139;51.274;7.128;2023-12-20T01:58:17;6.50;99.90
12152;DHT22;6139;51.274;7.128;2023-12-20T01:59:20;6.60;99.90
12152;DHT22;6139;51.274;7.128;2023-12-20T02:00:23;6.50;99.90
12152;DHT22;6139;51.274;7.128;2023-12-20T02:01:27;6.60;99.90
12152;DHT22;6139;51.274;7.128;2023-12-20T02:02:29;6.50;99.90
12152;DHT22;6139;51.274;7.128;2023-12-20T02:03:31;6.50;99.90
12152;DHT22;6139;51.274;7.128;2023-12-20T02:04:32;6.50;99.90
12152;DHT22;6139;51.274;7.128;2023-12-20T02:05:35;6.60;99.90
12152;DHT22;6139;51.274;7.128;2023-12-20T02:06:39;6.60;99.90
12152;DHT22;6139;51.274;7.128;2023-12-20T02:07:41;6.60;99.90
12152;DHT22;6139;51.274;7.128;2023-12-20T02:08:42;6.60;99.90
12152;DHT22;6139;51.274;7.128;2023-12-20T02:09:43;6.60;99.90
12152;DHT22;6139;51.274;7.128;2023-12-20T02:10:45;6.60;99.90
12152;DHT22;6139;51.274;7.128;2023-12-20T02:11:47;6.60;99.90
12152;DHT22;6139;51.274;7.128;2023-12-20T02:12:49;6.50;99.90
12152;DHT22;6139;51.274;7.128;2023-12-20T02:13:50;6.50;99.90
12152;DHT22;6139;51.274;7.128;2023-12-20T02:14:52;6.50;99.90
12152;DHT22;6139;51.274;7.128;2023-12-20T02:15:53;6.50;99.90
12152;DHT22;6139;51.274;7.128;2023-12-20T02:16:55;6.50;99.90
12152;DHT22;6139;51.274;7.128;2023-12-20T02:17:56;6.40;99.90
12152;DHT22;6139;51.274;7.128;2023-12-20T02:18:59;6.40;99.90
12152;DHT22;6139;51.274;7.128;2023-12-20T02:20:00;6.40;99.90
12152;DHT22;6139;51.274;7.128;2023-12-20T02:21:01;6.40;99.90
12152;DHT22;6139;51.274;7.128;2023-12-20T02:22:08;6.40;99.90
12152;DHT22;6139;51.274;7.128;2023-12-20T02:23:09;6.40;99.90
12152;DHT22;6139;51.274;7.128;2023-12-20T02:24:11;6.40;99.90
12152;DHT22;6139;51.274;7.128;2023-12-20T02:25:13;6.30;99.90
12152;DHT22;6139;51.274;7.128;2023-12-20T02:26:14;6.30;99.90
12152;DHT22;6139;51.274;7.128;2023-12-20T02:27:18;6.30;99.90
12152;DHT22;6139;51.274;7.128;2023-12-20T02:28:19;6.30;99.90
12152;DHT22;6139;51.274;7.128;2023-12-20T02:29:22;6.30;99.90
12152;DHT22;6139;51.274;7.128;2023-12-20T02:30:23;6.30;99.90
12152;DHT22;6139;51.274;7.128;2023-12-20T02:31:25;6.30;99.90
12152;DHT22;6139;51.274;7.128;2023-12-20T02:32:26;6.30;99.90
12152;DHT22;6139;51.274;7.128;2023-12-20T02:33:28;6.30;99.90
12152;DHT22;6139;51.274;7.128;2023-12-20T02:34:29;6.30;99.90
12152;DHT22;6139;51.274;7.128;2023-12-20T02:35:30;6.30;99.90
12152;DHT22;6139;51.274;7.128;2023-12-20T02:36:32;6.30;99.90
12152;DHT22;6139;51.274;7.128;2023-12-20T02:37:34;6.30;99.90
12152;DHT22;6139;51.274;7.128;2023-12-20T02:38:36;6.30;99.90
12152;DHT22;6139;51.274;7.128;2023-12-20T02:39:37;6.30;99.90
12152;DHT22;6139;51.274;7.128;2023-12-20T02:40:38;6.30;99.90
12152;DHT22;6139;51.274;7.128;2023-12-20T02:41:40;6.20;99.90
12152;DHT22;6139;51.274;7.128;2023-12-20T02:42:41;6.30;99.90
12152;DHT22;6139;51.274;7.128;2023-12-20T02:43:43;6.30;99.90
12152;DHT22;6139;51.274;7.128;2023-12-20T02:44:44;6.30;99.90
12152;DHT22;6139;51.274;7.128;2023-12-20T02:45:46;6.20;99.90
12152;DHT22;6139;51.274;7.128;2023-12-20T02:46:47;6.20;99.90
12152;DHT22;6139;51.274;7.128;2023-12-20T02:47:49;6.20;99.90
12152;DHT22;6139;51.274;7.128;2023-12-20T02:48:50;6.20;99.90
12152;DHT22;6139;51.274;7.128;2023-12-20T02:49:52;6.20;99.90
12152;DHT22;6139;51.274;7.128;2023-12-20T02:50:54;6.20;99.90
12152;DHT22;6139;51.274;7.128;2023-12-20T02:51:56;6.20;99.90
12152;DHT22;6139;51.274;7.128;2023-12-20T02:52:58;6.10;99.90
12152;DHT22;6139;51.274;7.128;2023-12-20T02:54:00;6.10;99.90
12152;DHT22;6139;51.274;7.128;2023-12-20T02:55:01;6.20;99.90
12152;DHT22;6139;51.274;7.128;2023-12-20T02:56:04;6.20;99.90
12152;DHT22;6139;51.274;7.128;2023-12-20T02:57:05;6.20;99.90
12152;DHT22;6139;51.274;7.128;2023-12-20T02:58:07;6.10;99.90
12152;DHT22;6139;51.274;7.128;2023-12-20T02:59:08;6.20;99.90
12152;DHT22;6139;51.274;7.128;2023-12-20T03:00:11;6.20;99.90
12152;DHT22;6139;51.274;7.128;2023-12-20T03:01:12;6.10;99.90
12152;DHT22;6139;51.274;7.128;2023-12-20T03:02:14;6.20;99.90
12152;DHT22;6139;51.274;7.128;2023-12-20T03:03:15;6.20;99.90
12152;DHT22;6139;51.274;7.128;2023-12-20T03:04:17;6.10;99.90
12152;DHT22;6139;51.274;7.128;2023-12-20T03:05:18;6.10;99.90
12152;DHT22;6139;51.274;7.128;2023-12-20T03:06:21;6.10;99.90
12152;DHT22;6139;51.274;7.128;2023-12-20T03:07:22;6.10;99.90
12152;DHT22;6139;51.274;7.128;2023-12-20T03:08:25;6.10;99.90
12152;DHT22;6139;51.274;7.128;2023-12-20T03:09:26;6.10;99.90
12152;DHT22;6139;51.274;7.128;2023-12-20T03:10:28;6.10;99.90
12152;DHT22;6139;51.274;7.128;2023-12-20T03:11:29;6.10;99.90
12152;DHT22;6139;51.274;7.128;2023-12-20T03:12:30;6.10;99.90
12152;DHT22;6139;51.274;7.128;2023-12-20T03:13:32;6.10;99.90
12152;DHT22;6139;51.274;7.128;2023-12-20T03:14:33;6.10;99.90
12152;DHT22;6139;51.274;7.128;2023-12-20T03:15:35;6.10;99.90
12152;DHT22;6139;51.274;7.128;2023-12-20T03:16:36;6.10;99.90
12152;DHT22;6139;51.274;7.128;2023-12-20T03:17:38;6.10;99.90
12152;DHT22;6139;51.274;7.128;2023-12-20T03:18:39;6.00;99.90
12152;DHT22;6139;51.274;7.128;2023-12-20T03:19:41;6.00;99.90
12152;DHT22;6139;51.274;7.128;2023-12-20T03:20:42;6.00;99.90
12152;DHT22;6139;51.274;7.128;2023-12-20T03:21:44;6.00;99.90
12152;DHT22;6139;51.274;7.128;2023-12-20T03:22:45;6.00;99.90
12152;DHT22;6139;51.274;7.128;2023-12-20T03:23:48;6.00;99.90
12152;DHT22;6139;51.274;7.128;2023-12-20T03:24:49;6.00;99.90
12152;DHT22;6139;51.274;7.128;2023-12-20T03:25:51;6.00;99.90
12152;DHT22;6139;51.274;7.128;2023-12-20T03:26:52;6.00;99.90
12152;DHT22;6139;51.274;7.128;2023-12-20T03:27:54;6.00;99.90
12152;DHT22;6139;51.274;7.128;2023-12-20T03:28:55;6.00;99.90
12152;DHT22;6139;51.274;7.128;2023-12-20T03:29:57;5.90;99.90
12152;DHT22;6139;51.274;7.128;2023-12-20T03:30:58;5.90;99.90
12152;DHT22;6139;51.274;7.128;2023-12-20T03:32:00;5.90;99.90
12152;DHT22;6139;51.274;7.128;2023-12-20T03:33:00;5.90;99.90
12152;DHT22;6139;51.274;7.128;2023-12-20T03:34:02;5.90;99.90
12152;DHT22;6139;51.274;7.128;2023-12-20T03:35:04;5.90;99.90
12152;DHT22;6139;51.274;7.128;2023-12-20T03:36:05;5.90;99.90
12152;DHT22;6139;51.274;7.128;2023-12-20T03:37:07;5.90;99.90
12152;DHT22;6139;51.274;7.128;2023-12-20T03:38:08;5.90;99.90
12152;DHT22;6139;51.274;7.128;2023-12-20T03:39:12;6.00;99.90
12152;DHT22;6139;51.274;7.128;2023-12-20T03:40:13;5.90;99.90
12152;DHT22;6139;51.274;7.128;2023-12-20T03:41:15;5.90;99.90
12152;DHT22;6139;51.274;7.128;2023-12-20T03:42:16;5.90;99.90
12152;DHT22;6139;51.274;7.128;2023-12-20T03:43:17;5.90;99.90
12152;DHT22;6139;51.274;7.128;2023-12-20T03:44:19;5.90;99.90
12152;DHT22;6139;51.274;7.128;2023-12-20T03:45:21;5.90;99.90
12152;DHT22;6139;51.274;7.128;2023-12-20T03:46:23;5.90;99.90
12152;DHT22;6139;51.274;7.128;2023-12-20T03:47:24;5.90;99.90
12152;DHT22;6139;51.274;7.128;2023-12-20T03:48:25;5.90;99.90
12152;DHT22;6139;51.274;7.128;2023-12-20T03:49:27;5.90;99.90
12152;DHT22;6139;51.274;7.128;2023-12-20T03:50:28;5.90;99.90
12152;DHT22;6139;51.274;7.128;2023-12-20T03:51:30;5.90;99.90
12152;DHT22;6139;51.274;7.128;2023-12-20T03:52:31;5.90;99.90
12152;DHT22;6139;51.274;7.128;2023-12-20T03:53:32;5.90;99.90
12152;DHT22;6139;51.274;7.128;2023-12-20T03:54:36;5.90;99.90
12152;DHT22;6139;51.274;7.128;2023-12-20T03:55:37;5.90;99.90
12152;DHT22;6139;51.274;7.128;2023-12-20T03:56:39;5.90;99.90
12152;DHT22;6139;51.274;7.128;2023-12-20T03:57:40;5.90;99.90
12152;DHT22;6139;51.274;7.128;2023-12-20T03:58:42;5.90;99.90
12152;DHT22;6139;51.274;7.128;2023-12-20T03:59:43;5.90;99.90
12152;DHT22;6139;51.274;7.128;2023-12-20T04:00:45;5.90;99.90
12152;DHT22;6139;51.274;7.128;2023-12-20T04:01:46;5.90;99.90
12152;DHT22;6139;51.274;7.128;2023-12-20T04:02:47;5.90;99.90
12152;DHT22;6139;51.274;7.128;2023-12-20T04:03:48;5.90;99.90
12152;DHT22;6139;51.274;7.128;2023-12-20T04:04:49;5.90;99.90
12152;DHT22;6139;51.274;7.128;2023-12-20T04:05:50;5.80;99.90
12152;DHT22;6139;51.274;7.128;2023-12-20T04:06:52;5.80;99.90
12152;DHT22;6139;51.274;7.128;2023-12-20T04:07:53;5.80;99.90
12152;DHT22;6139;51.274;7.128;2023-12-20T04:08:55;5.80;99.90
12152;DHT22;6139;51.274;7.128;2023-12-20T04:09:58;5.80;99.90
12152;DHT22;6139;51.274;7.128;2023-12-20T04:11:00;5.80;99.90
12152;DHT22;6139;51.274;7.128;2023-12-20T04:12:01;5.80;99.90
12152;DHT22;6139;51.274;7.128;2023-12-20T04:13:03;5.80;99.90
12152;DHT22;6139;51.274;7.128;2023-12-20T04:14:04;5.80;99.90
12152;DHT22;6139;51.274;7.128;2023-12-20T04:15:06;5.80;99.90
12152;DHT22;6139;51.274;7.128;2023-12-20T04:16:09;5.80;99.90
12152;DHT22;6139;51.274;7.128;2023-12-20T04:17:10;5.80;99.90
12152;DHT22;6139;51.274;7.128;2023-12-20T04:18:12;5.80;99.90
12152;DHT22;6139;51.274;7.128;2023-12-20T04:19:13;5.70;99.90
12152;DHT22;6139;51.274;7.128;2023-12-20T04:20:15;5.70;99.90
12152;DHT22;6139;51.274;7.128;2023-12-20T04:21:16;5.70;99.90
12152;DHT22;6139;51.274;7.128;2023-12-20T04:22:18;5.70;99.90
12152;DHT22;6139;51.274;7.128;2023-12-20T04:23:19;5.70;99.90
12152;DHT22;6139;51.274;7.128;2023-12-20T04:24:21;5.70;99.90
12152;DHT22;6139;51.274;7.128;2023-12-20T04:25:24;5.70;99.90
12152;DHT22;6139;51.274;7.128;2023-12-20T04:26:26;5.80;99.90
12152;DHT22;6139;51.274;7.128;2023-12-20T04:27:27;5.70;99.90
12152;DHT22;6139;51.274;7.128;2023-12-20T04:28:29;5.70;99.90
12152;DHT22;6139;51.274;7.128;2023-12-20T04:29:30;5.80;99.90
12152;DHT22;6139;51.274;7.128;2023-12-20T04:30:32;5.80;99.90
12152;DHT22;6139;51.274;7.128;2023-12-20T04:31:33;5.70;99.90
12152;DHT22;6139;51.274;7.128;2023-12-20T04:32:35;5.70;99.90
12152;DHT22;6139;51.274;7.128;2023-12-20T04:33:36;5.70;99.90
12152;DHT22;6139;51.274;7.128;2023-12-20T04:34:38;5.80;99.90
12152;DHT22;6139;51.274;7.128;2023-12-20T04:35:39;5.70;99.90
12152;DHT22;6139;51.274;7.128;2023-12-20T04:36:43;5.70;99.90
12152;DHT22;6139;51.274;7.128;2023-12-20T04:37:45;5.80;99.90
12152;DHT22;6139;51.274;7.128;2023-12-20T04:38:46;5.70;99.90
12152;DHT22;6139;51.274;7.128;2023-12-20T04:39:48;5.80;99.90
12152;DHT22;6139;51.274;7.128;2023-12-20T04:40:50;5.80;99.90
12152;DHT22;6139;51.274;7.128;2023-12-20T04:41:52;5.80;99.90
12152;DHT22;6139;51.274;7.128;2023-12-20T04:42:53;5.80;99.90
12152;DHT22;6139;51.274;7.128;2023-12-20T04:43:55;5.80;99.90
12152;DHT22;6139;51.274;7.128;2023-12-20T04:44:56;5.80;99.90
12152;DHT22;6139;51.274;7.128;2023-12-20T04:45:58;5.80;99.90
12152;DHT22;6139;51.274;7.128;2023-12-20T04:46:59;5.70;99.90
12152;DHT22;6139;51.274;7.128;2023-12-20T04:48:02;5.70;99.90
12152;DHT22;6139;51.274;7.128;2023-12-20T04:49:03;5.70;99.90
12152;DHT22;6139;51.274;7.128;2023-12-20T04:50:06;5.70;99.90
12152;DHT22;6139;51.274;7.128;2023-12-20T04:51:07;5.70;99.90
12152;DHT22;6139;51.274;7.128;2023-12-20T04:52:09;5.60;99.90
12152;DHT22;6139;51.274;7.128;2023-12-20T04:53:10;5.70;99.90
12152;DHT22;6139;51.274;7.128;2023-12-20T04:54:12;5.60;99.90
12152;DHT22;6139;51.274;7.128;2023-12-20T04:55:14;5.60;99.90
12152;DHT22;6139;51.274;7.128;2023-12-20T04:56:17;5.70;99.90
12152;DHT22;6139;51.274;7.128;2023-12-20T04:57:18;5.70;99.90
12152;DHT22;6139;51.274;7.128;2023-12-20T04:58:20;5.60;99.90
12152;DHT22;6139;51.274;7.128;2023-12-20T04:59:21;5.60;99.90
12152;DHT22;6139;51.274;7.128;2023-12-20T05:00:23;5.60;99.90
12152;DHT22;6139;51.274;7.128;2023-12-20T05:01:24;5.60;99.90
12152;DHT22;6139;51.274;7.128;2023-12-20T05:02:26;5.60;99.90
12152;DHT22;6139;51.274;7.128;2023-12-20T05:03:27;5.50;99.90
12152;DHT22;6139;51.274;7.128;2023-12-20T05:04:29;5.50;99.90
12152;DHT22;6139;51.274;7.128;2023-12-20T05:05:30;5.60;99.90
12152;DHT22;6139;51.274;7.128;2023-12-20T05:06:32;5.50;99.90
12152;DHT22;6139;51.274;7.128;2023-12-20T05:07:33;5.60;99.90
12152;DHT22;6139;51.274;7.128;2023-12-20T05:08:35;5.60;99.90
12152;DHT22;6139;51.274;7.128;2023-12-20T05:09:36;5.50;99.90
12152;DHT22;6139;51.274;7.128;2023-12-20T05:10:38;5.50;99.90
12152;DHT22;6139;51.274;7.128;2023-12-20T05:11:42;5.50;99.90
12152;DHT22;6139;51.274;7.128;2023-12-20T05:12:44;5.50;99.90
12152;DHT22;6139;51.274;7.128;2023-12-20T05:13:45;5.50;99.90
12152;DHT22;6139;51.274;7.128;2023-12-20T05:14:47;5.50;99.90
12152;DHT22;6139;51.274;7.128;2023-12-20T05:15:48;5.50;99.90
12152;DHT22;6139;51.274;7.128;2023-12-20T05:16:50;5.50;99.90
12152;DHT22;6139;51.274;7.128;2023-12-20T05:17:51;5.60;99.90
12152;DHT22;6139;51.274;7.128;2023-12-20T05:18:53;5.50;99.90
12152;DHT22;6139;51.274;7.128;2023-12-20T05:19:54;5.60;99.90
12152;DHT22;6139;51.274;7.128;2023-12-20T05:20:56;5.60;99.90
12152;DHT22;6139;51.274;7.128;2023-12-20T05:21:57;5.60;99.90
12152;DHT22;6139;51.274;7.128;2023-12-20T05:22:59;5.60;99.90
12152;DHT22;6139;51.274;7.128;2023-12-20T05:24:00;5.60;99.90
12152;DHT22;6139;51.274;7.128;2023-12-20T05:25:01;5.50;99.90
12152;DHT22;6139;51.274;7.128;2023-12-20T05:26:03;5.50;99.90
12152;DHT22;6139;51.274;7.128;2023-12-20T05:27:05;5.60;99.90
12152;DHT22;6139;51.274;7.128;2023-12-20T05:28:07;5.50;99.90
12152;DHT22;6139;51.274;7.128;2023-12-20T05:29:08;5.50;99.90
12152;DHT22;6139;51.274;7.128;2023-12-20T05:30:11;5.50;99.90
12152;DHT22;6139;51.274;7.128;2023-12-20T05:31:12;5.50;99.90
12152;DHT22;6139;51.274;7.128;2023-12-20T05:32:14;5.50;99.90
12152;DHT22;6139;51.274;7.128;2023-12-20T05:33:15;5.50;99.90
12152;DHT22;6139;51.274;7.128;2023-12-20T05:34:17;5.50;99.90
12152;DHT22;6139;51.274;7.128;2023-12-20T05:35:18;5.50;99.90
12152;DHT22;6139;51.274;7.128;2023-12-20T05:36:20;5.50;99.90
12152;DHT22;6139;51.274;7.128;2023-12-20T05:37:21;5.50;99.90
12152;DHT22;6139;51.274;7.128;2023-12-20T05:38:23;5.50;99.90
12152;DHT22;6139;51.274;7.128;2023-12-20T05:39:24;5.50;99.90
12152;DHT22;6139;51.274;7.128;2023-12-20T05:40:26;5.50;99.90
12152;DHT22;6139;51.274;7.128;2023-12-20T05:41:27;5.50;99.90
12152;DHT22;6139;51.274;7.128;2023-12-20T05:42:30;5.50;99.90
12152;DHT22;6139;51.274;7.128;2023-12-20T05:43:31;5.60;99.90
12152;DHT22;6139;51.274;7.128;2023-12-20T05:44:33;5.50;99.90
12152;DHT22;6139;51.274;7.128;2023-12-20T05:45:34;5.50;99.90
12152;DHT22;6139;51.274;7.128;2023-12-20T05:46:36;5.50;99.90
12152;DHT22;6139;51.274;7.128;2023-12-20T05:47:37;5.50;99.90
12152;DHT22;6139;51.274;7.128;2023-12-20T05:48:39;5.60;99.90
12152;DHT22;6139;51.274;7.128;2023-12-20T05:49:40;5.50;99.90
12152;DHT22;6139;51.274;7.128;2023-12-20T05:50:42;5.50;99.90
12152;DHT22;6139;51.274;7.128;2023-12-20T05:51:43;5.50;99.90
12152;DHT22;6139;51.274;7.128;2023-12-20T05:52:44;5.60;99.90
12152;DHT22;6139;51.274;7.128;2023-12-20T05:53:46;5.60;99.90
12152;DHT22;6139;51.274;7.128;2023-12-20T05:54:47;5.50;99.90
12152;DHT22;6139;51.274;7.128;2023-12-20T05:55:49;5.50;99.90
12152;DHT22;6139;51.274;7.128;2023-12-20T05:56:50;5.40;99.90
12152;DHT22;6139;51.274;7.128;2023-12-20T05:57:53;5.50;99.90
12152;DHT22;6139;51.274;7.128;2023-12-20T05:58:54;5.40;99.90
12152;DHT22;6139;51.274;7.128;2023-12-20T05:59:56;5.50;99.90
12152;DHT22;6139;51.274;7.128;2023-12-20T06:00:57;5.40;99.90
12152;DHT22;6139;51.274;7.128;2023-12-20T06:01:58;5.50;99.90
12152;DHT22;6139;51.274;7.128;2023-12-20T06:03:00;5.50;99.90
12152;DHT22;6139;51.274;7.128;2023-12-20T06:04:02;5.40;99.90
12152;DHT22;6139;51.274;7.128;2023-12-20T06:05:04;5.40;99.90
12152;DHT22;6139;51.274;7.128;2023-12-20T06:06:06;5.40;99.90
12152;DHT22;6139;51.274;7.128;2023-12-20T06:07:08;5.40;99.90
12152;DHT22;6139;51.274;7.128;2023-12-20T06:08:12;5.40;99.90
12152;DHT22;6139;51.274;7.128;2023-12-20T06:09:14;5.50;99.90
12152;DHT22;6139;51.274;7.128;2023-12-20T06:10:15;5.50;99.90
12152;DHT22;6139;51.274;7.128;2023-12-20T06:11:17;5.40;99.90
12152;DHT22;6139;51.274;7.128;2023-12-20T06:12:18;5.40;99.90
12152;DHT22;6139;51.274;7.128;2023-12-20T06:13:22;5.40;99.90
12152;DHT22;6139;51.274;7.128;2023-12-20T06:14:23;5.40;99.90
12152;DHT22;6139;51.274;7.128;2023-12-20T06:15:24;5.40;99.90
12152;DHT22;6139;51.274;7.128;2023-12-20T06:16:25;5.40;99.90
12152;DHT22;6139;51.274;7.128;2023-12-20T06:17:27;5.40;99.90
12152;DHT22;6139;51.274;7.128;2023-12-20T06:18:31;5.40;99.90
12152;DHT22;6139;51.274;7.128;2023-12-20T06:19:33;5.40;99.90
12152;DHT22;6139;51.274;7.128;2023-12-20T06:20:34;5.40;99.90
12152;DHT22;6139;51.274;7.128;2023-12-20T06:21:36;5.40;99.90
12152;DHT22;6139;51.274;7.128;2023-12-20T06:22:37;5.40;99.90
12152;DHT22;6139;51.274;7.128;2023-12-20T06:23:39;5.40;99.90
12152;DHT22;6139;51.274;7.128;2023-12-20T06:24:40;5.40;99.90
12152;DHT22;6139;51.274;7.128;2023-12-20T06:25:42;5.40;99.90
12152;DHT22;6139;51.274;7.128;2023-12-20T06:26:43;5.40;99.90
12152;DHT22;6139;51.274;7.128;2023-12-20T06:27:44;5.40;99.90
12152;DHT22;6139;51.274;7.128;2023-12-20T06:28:47;5.40;99.90
12152;DHT22;6139;51.274;7.128;2023-12-20T06:29:49;5.40;99.90
12152;DHT22;6139;51.274;7.128;2023-12-20T06:30:50;5.40;99.90
12152;DHT22;6139;51.274;7.128;2023-12-20T06:31:53;5.40;99.90
12152;DHT22;6139;51.274;7.128;2023-12-20T06:32:54;5.40;99.90
12152;DHT22;6139;51.274;7.128;2023-12-20T06:33:58;5.40;99.90
12152;DHT22;6139;51.274;7.128;2023-12-20T06:35:00;5.40;99.90
12152;DHT22;6139;51.274;7.128;2023-12-20T06:36:03;5.40;99.90
12152;DHT22;6139;51.274;7.128;2023-12-20T06:37:04;5.40;99.90
12152;DHT22;6139;51.274;7.128;2023-12-20T06:38:06;5.40;99.90
12152;DHT22;6139;51.274;7.128;2023-12-20T06:39:07;5.40;99.90
12152;DHT22;6139;51.274;7.128;2023-12-20T06:40:10;5.40;99.90
12152;DHT22;6139;51.274;7.128;2023-12-20T06:41:13;5.40;99.90
12152;DHT22;6139;51.274;7.128;2023-12-20T06:42:14;5.40;99.90
12152;DHT22;6139;51.274;7.128;2023-12-20T06:43:16;5.40;99.90